createdAt,value
2022-11-07T00:00:25.996Z,100084.63
2022-11-07T00:05:29.471Z,100089.56
2022-11-07T00:10:32.903Z,100086.91
2022-11-07T00:15:37.710Z,100099.06
2022-11-07T00:20:42.305Z,100099.38
2022-11-07T00:25:45.748Z,100099.66
2022-11-07T00:30:50.519Z,100100.50
2022-11-07T00:35:53.986Z,100097.63
2022-11-07T00:40:57.719Z,100106.91
2022-11-07T00:46:03.417Z,100113.72
2022-11-07T00:51:07.808Z,100123.34
2022-11-07T00:56:13.087Z,100127.78
2022-11-07T01:01:20.206Z,100128.81
2022-11-07T01:06:24.265Z,100129.19
2022-11-07T01:11:29.271Z,100133.06
2022-11-07T01:16:35.269Z,100136.28
2022-11-07T01:21:39.296Z,100143.63
2022-11-07T01:26:43.719Z,100138.81
2022-11-07T01:31:49.129Z,100144.50
2022-11-07T01:36:53.697Z,100141.97
2022-11-07T01:41:57.196Z,100155.69
2022-11-07T01:47:02.722Z,100157.31
2022-11-07T01:52:09.926Z,100154.25
2022-11-07T01:57:16.567Z,100154.63
2022-11-07T02:02:21.688Z,100159.72
2022-11-07T02:07:25.740Z,100154.94
2022-11-07T02:12:29.560Z,100155.44
2022-11-07T02:17:34.670Z,100142.38
2022-11-07T02:22:42.830Z,100147.84
2022-11-07T02:27:49.731Z,100138.41
2022-11-07T02:32:53.169Z,100142.34
2022-11-07T02:37:56.876Z,100143.75
2022-11-07T02:43:01.781Z,100135.19
2022-11-07T02:48:05.777Z,100140.91
2022-11-07T02:53:09.322Z,100152.31
2022-11-07T02:58:14.101Z,100146.53
2022-11-07T03:03:17.784Z,100138.00
2022-11-07T03:08:21.285Z,100149.06
2022-11-07T03:13:26.101Z,100142.97
2022-11-07T03:18:29.515Z,100144.78
2022-11-07T03:23:34.385Z,100153.69
2022-11-07T03:28:39.182Z,100155.25
2022-11-07T03:33:42.519Z,100156.31
2022-11-07T03:38:45.877Z,100158.97
2022-11-07T03:43:50.615Z,100164.56
2022-11-07T03:48:54.075Z,100169.16
2022-11-07T03:53:57.481Z,100178.19
2022-11-07T03:59:02.429Z,100167.56
2022-11-07T04:04:06.274Z,100177.34
2022-11-07T04:09:09.930Z,100175.22
2022-11-07T04:14:32.399Z,100176.16
2022-11-07T04:19:35.730Z,100183.25
2022-11-07T04:24:44.460Z,100181.06
2022-11-07T04:29:50.412Z,100185.50
2022-11-07T04:34:53.916Z,100188.78
2022-11-07T04:39:57.299Z,100187.53
2022-11-07T04:45:02.051Z,100188.88
2022-11-07T04:50:06.430Z,100189.66
2022-11-07T04:55:11.400Z,100189.47
2022-11-07T05:00:17.645Z,100190.50
2022-11-07T05:05:21.331Z,100199.16
2022-11-07T05:10:26.941Z,100203.97
2022-11-07T05:15:31.654Z,100199.84
2022-11-07T05:20:36.761Z,100205.44
2022-11-07T05:25:40.297Z,100208.69
2022-11-07T05:30:45.978Z,100217.66
2022-11-07T05:35:49.350Z,100214.75
2022-11-07T05:40:52.745Z,100217.16
2022-11-07T05:46:01.279Z,100223.13
2022-11-07T05:51:05.038Z,100223.59
2022-11-07T05:56:08.460Z,100231.03
2022-11-07T06:01:13.243Z,100231.41
2022-11-07T06:06:16.605Z,100232.16
2022-11-07T06:11:20.012Z,100229.28
2022-11-07T06:16:24.857Z,100233.94
2022-11-07T06:21:28.271Z,100242.81
2022-11-07T06:26:31.637Z,100243.44
2022-11-07T06:31:36.430Z,100247.69
2022-11-07T06:36:39.857Z,100258.16
2022-11-07T06:41:43.234Z,100262.31
2022-11-07T06:46:48.022Z,100270.94
2022-11-07T06:51:51.448Z,100274.72
2022-11-07T06:56:54.937Z,100278.22
2022-11-07T07:01:59.699Z,100284.81
2022-11-07T07:07:03.173Z,100292.13
2022-11-07T07:12:07.524Z,100293.19
2022-11-07T07:17:12.573Z,100284.88
2022-11-07T07:22:15.932Z,100289.03
2022-11-07T07:27:20.215Z,100291.84
2022-11-07T07:32:25.658Z,100294.66
2022-11-07T07:37:29.631Z,100297.28
2022-11-07T07:42:33.149Z,100298.88
2022-11-07T07:47:38.367Z,100294.72
2022-11-07T07:52:41.814Z,100306.63
2022-11-07T07:57:45.220Z,100301.59
2022-11-07T08:02:49.974Z,100296.94
2022-11-07T08:07:53.359Z,100315.16
2022-11-07T08:12:56.946Z,100309.34
2022-11-07T08:18:03.481Z,100304.00
2022-11-07T08:23:14.540Z,100315.09
2022-11-07T08:28:20.692Z,100327.47
2022-11-07T08:33:25.789Z,100327.53
2022-11-07T08:38:29.865Z,100329.16
2022-11-07T08:43:33.280Z,100334.25
2022-11-07T08:48:38.177Z,100345.13
2022-11-07T08:53:41.551Z,100336.47
2022-11-07T08:58:44.939Z,100331.78
2022-11-07T09:03:56.448Z,100337.44
2022-11-07T09:09:01.624Z,100337.78
2022-11-07T09:14:05.155Z,100328.00
2022-11-07T09:19:10.295Z,100320.66
2022-11-07T09:24:13.719Z,100324.44
2022-11-07T09:29:17.126Z,100318.34
2022-11-07T09:34:21.865Z,100325.47
2022-11-07T09:39:25.235Z,100324.13
2022-11-07T09:44:41.093Z,100320.59
2022-11-07T09:49:48.424Z,100313.09
2022-11-07T09:54:54.734Z,100321.81
2022-11-07T10:00:01.310Z,100319.41
2022-11-07T10:05:15.730Z,100323.97
2022-11-07T10:10:23.678Z,100320.19
2022-11-07T10:15:29.387Z,100330.84
2022-11-07T10:20:47.068Z,100340.25
2022-11-07T10:25:54.186Z,100344.94
2022-11-07T10:30:59.657Z,100337.75
2022-11-07T10:36:08.654Z,100340.28
2022-11-07T10:41:15.594Z,100346.75
2022-11-07T10:46:22.235Z,100354.44
2022-11-07T10:51:37.374Z,100341.94
2022-11-07T10:56:48.573Z,100339.25
2022-11-07T11:01:53.640Z,100340.44
2022-11-07T11:07:00.457Z,100328.72
2022-11-07T11:12:07.884Z,100331.06
2022-11-07T11:17:23.872Z,100334.91
2022-11-07T11:22:29.430Z,100327.56
2022-11-07T11:27:34.583Z,100319.34
2022-11-07T11:32:40.921Z,100323.53
2022-11-07T11:37:48.256Z,100312.81
2022-11-07T11:42:56.026Z,100316.16
2022-11-07T11:48:01.989Z,100313.25
2022-11-07T11:53:09.758Z,100306.09
2022-11-07T11:58:20.075Z,100311.06
2022-11-07T12:03:35.492Z,100314.81
2022-11-07T12:09:00.982Z,100320.41
2022-11-07T12:14:12.577Z,100303.22
2022-11-07T12:19:21.438Z,100317.72
2022-11-07T12:24:33.817Z,100316.28
2022-11-07T12:29:50.024Z,100318.56
2022-11-07T12:35:04.832Z,100323.28
2022-11-07T12:40:19.376Z,100325.34
2022-11-07T12:45:30.034Z,100323.19
2022-11-07T12:50:40.993Z,100333.91
2022-11-07T12:55:48.562Z,100333.13
2022-11-07T13:00:52.390Z,100333.81
2022-11-07T13:06:06.585Z,100331.50
2022-11-07T13:11:18.174Z,100328.03
2022-11-07T13:16:24.309Z,100324.56
2022-11-07T13:21:27.736Z,100338.50
2022-11-07T13:26:46.827Z,100343.09
2022-11-07T13:32:05.000Z,100356.53
2022-11-07T13:37:16.509Z,100353.66
2022-11-07T13:42:21.856Z,100344.13
2022-11-07T13:47:33.068Z,100353.97
2022-11-07T13:52:41.476Z,100360.53
2022-11-07T13:57:49.260Z,100350.97
2022-11-07T14:02:54.440Z,100377.50
2022-11-07T14:08:01.614Z,100371.91
2022-11-07T14:13:09.125Z,100380.47
2022-11-07T14:18:14.860Z,100374.13
2022-11-07T14:23:21.807Z,100372.09
2022-11-07T14:28:31.061Z,100369.06
2022-11-07T14:33:34.555Z,100369.56
2022-11-07T14:38:46.319Z,100371.59
2022-11-07T14:43:52.263Z,100380.09
2022-11-07T14:48:56.233Z,100380.94
2022-11-07T14:54:02.021Z,100382.81
2022-11-07T14:59:09.102Z,100388.13
2022-11-07T15:04:17.928Z,100394.78
2022-11-07T15:09:31.998Z,100387.31
2022-11-07T15:14:37.646Z,100400.66
2022-11-07T15:19:41.033Z,100395.22
2022-11-07T15:24:46.123Z,100380.94
2022-11-07T15:29:55.829Z,100391.09
2022-11-07T15:35:17.543Z,100398.44
2022-11-07T15:40:24.412Z,100410.03
2022-11-07T15:45:29.270Z,100400.56
2022-11-07T15:50:33.094Z,100398.91
2022-11-07T15:55:36.485Z,100401.25
2022-11-07T16:00:41.392Z,100418.72
2022-11-07T16:05:46.226Z,100404.81
2022-11-07T16:10:51.311Z,100414.56
2022-11-07T16:15:59.245Z,100410.81
2022-11-07T16:21:02.742Z,100413.81
2022-11-07T16:26:06.481Z,100419.81
2022-11-07T16:31:11.325Z,100426.53
2022-11-07T16:36:20.779Z,100425.34
2022-11-07T16:41:24.618Z,100430.63
2022-11-07T16:46:29.935Z,100424.78
2022-11-07T16:51:33.751Z,100436.03
2022-11-07T16:56:37.304Z,100440.25
2022-11-07T17:01:42.218Z,100442.72
2022-11-07T17:06:47.511Z,100432.50
2022-11-07T17:11:50.998Z,100436.13
2022-11-07T17:16:55.754Z,100436.06
2022-11-07T17:22:00.040Z,100436.13
2022-11-07T17:27:03.599Z,100433.22
2022-11-07T17:32:08.731Z,100440.47
2022-11-07T17:37:15.394Z,100436.00
2022-11-07T17:42:18.821Z,100436.56
2022-11-07T17:47:30.313Z,100432.38
2022-11-07T17:52:33.794Z,100434.13
2022-11-07T17:57:38.024Z,100435.13
2022-11-07T18:02:42.992Z,100444.75
2022-11-07T18:07:46.833Z,100443.59
2022-11-07T18:12:50.216Z,100441.50
2022-11-07T18:17:54.944Z,100442.34
2022-11-07T18:22:58.357Z,100445.31
2022-11-07T18:28:01.753Z,100444.22
2022-11-07T18:33:06.578Z,100450.81
2022-11-07T18:38:10.071Z,100451.97
2022-11-07T18:43:13.436Z,100448.25
2022-11-07T18:48:18.702Z,100446.22
2022-11-07T18:53:22.270Z,100448.19
2022-11-07T18:58:25.931Z,100447.56
2022-11-07T19:03:30.780Z,100449.75
2022-11-07T19:08:35.610Z,100447.16
2022-11-07T19:13:40.260Z,100459.72
2022-11-07T19:18:49.464Z,100445.16
2022-11-07T19:23:53.274Z,100448.09
2022-11-07T19:28:58.692Z,100450.84
2022-11-07T19:34:03.683Z,100443.66
2022-11-07T19:39:07.080Z,100445.44
2022-11-07T19:44:10.489Z,100454.41
2022-11-07T19:49:15.230Z,100458.81
2022-11-07T19:54:18.679Z,100446.13
2022-11-07T19:59:22.083Z,100448.16
2022-11-07T20:04:26.919Z,100456.97
2022-11-07T20:09:30.402Z,100465.56
2022-11-07T20:14:33.796Z,100458.78
2022-11-07T20:19:38.674Z,100474.56
2022-11-07T20:24:42.057Z,100466.44
2022-11-07T20:29:45.698Z,100470.22
2022-11-07T20:34:53.853Z,100463.88
2022-11-07T20:39:57.526Z,100470.75
2022-11-07T20:45:01.056Z,100467.97
2022-11-07T20:50:06.947Z,100461.94
2022-11-07T20:55:11.647Z,100466.56
2022-11-07T21:00:16.165Z,100474.50
2022-11-07T21:05:20.947Z,100469.66
2022-11-07T21:10:24.376Z,100469.66
2022-11-07T21:15:27.845Z,100472.31
2022-11-07T21:20:32.718Z,100474.53
2022-11-07T21:25:42.701Z,100477.03
2022-11-07T21:30:46.154Z,100469.25
2022-11-07T21:35:50.939Z,100463.06
2022-11-07T21:40:54.353Z,100468.41
2022-11-07T21:46:06.961Z,100465.56
2022-11-07T21:51:14.537Z,100474.91
2022-11-07T21:56:22.434Z,100479.25
2022-11-07T22:01:26.275Z,100479.13
2022-11-07T22:06:34.189Z,100482.38
2022-11-07T22:11:37.779Z,100476.00
2022-11-07T22:16:41.243Z,100472.38
2022-11-07T22:21:46.075Z,100477.91
2022-11-07T22:26:49.416Z,100477.59
2022-11-07T22:31:52.823Z,100470.28
2022-11-07T22:36:57.653Z,100476.72
2022-11-07T22:42:01.017Z,100471.25
2022-11-07T22:47:04.482Z,100469.72
2022-11-07T22:52:09.285Z,100471.03
2022-11-07T22:57:17.558Z,100476.81
2022-11-07T23:02:21.331Z,100464.13
2022-11-07T23:07:26.190Z,100468.31
2022-11-07T23:12:29.558Z,100464.94
2022-11-07T23:17:33.120Z,100472.63
2022-11-07T23:22:37.804Z,100468.63
2022-11-07T23:27:41.253Z,100464.78
2022-11-07T23:32:44.645Z,100462.25
2022-11-07T23:37:51.047Z,100454.75
2022-11-07T23:42:54.460Z,100460.03
2022-11-07T23:48:18.805Z,100464.56
2022-11-07T23:53:41.421Z,100463.50
2022-11-07T23:59:02.059Z,100464.75
